Ana Sayfa
METAR-TAF:

METAR-TAF

Havaalanları :

Wink, Teksas, Amerika Birleşik Devletleri

Enlem: 31-46-47N, Boylam: 103-12-05W, yükseklik: 860 m

Güncel hava durumu gözlemi

Rapor saat 23:53 UTC de 1 saat ve 9 dakika önce yapıldı.
Rüzgar güneydan 10 kt
Sıcaklık 26°C
Nem 30%
Basınç 1013 hPa
Görüş mesafesi: 16.1 km
10000 ft yükseklikte az bulutlu

METAR: KINK 062353Z AUTO 19010KT 10SM FEW100 26/07 A2991 RMK AO2 SLP092 T02610072 10267 20194 55004

Saat: 20:02 (01:02 UTC)

Tahmin

Rapor saat 23:20 UTC de 1 saat ve 42 dakika önce yapıldı.
Ayın 07'si saat 00 UTC'den ayın 07'si saat 24 UTC'ye kadar geçerli Tahmin
Rüzgar güneydoğudan 8 kt
Görüş mesafesi: 10 km
20000 ft yükseklikte çok bulutlu

TAF: KINK 062320Z 0700/0724 14008KT P6SM OVC200

4.000'den fazla havaalanı için hava durumu gözlemleri ve tahminleri (METAR ve TAF raporları).

Kullanılabilir istasyonlar harita üzerinde sarı ve kırmızı noktalarla gösterilir.

İstasyonun adını görmek için fareyi noktanın üzerinde gezdirin.

Sonrasında hava gözlem ve tahminlerini görmek için tıklayın.

Haritayı değiştirmek için: yaklaştırmak için siyah artı işaretli yeşil düğmeye ve uzaklaştırmak için de eksi işaretli düğmeye hızla tıklayın; bitişik haritalar için yeşil okları kullanın.


METAR-TAF: